This is the latest recevied weather packets stored in our database for station/object WC4PEM-7. If no packets are shown the sender has not sent any weather packets the latest 10 day(s).
| Time | Temp. | Humidity | Pressure | Rain* | Wind** | Luminosity | Snow |
|---|---|---|---|---|---|---|---|
| 1777825721 | 21.67° C | 75% | 1018 hPa | 0 mm | - | - | - |
| 1777825421 | 22.22° C | 75% | 1018.1 hPa | 0 mm | - | - | - |
| 1777825121 | 21.67° C | 77% | 1018.1 hPa | 0 mm | - | - | - |
| 1777824822 | 21.67° C | 78% | 1018.2 hPa | 0 mm | - | - | - |
| 1777824521 | 21.67° C | 77% | 1018.2 hPa | 0 mm | - | - | - |
| 1777824499 | 21.11° C | 77% | 1018.1 hPa | 0 mm | - | - | - |
| 1777824222 | 21.11° C | 77% | 1018.1 hPa | 0 mm | - | - | - |
| 1777823921 | 21.11° C | 78% | 1018.2 hPa | 0 mm | - | - | - |
| 1777823621 | 21.11° C | 77% | 1018.3 hPa | 0 mm | - | - | - |
| 1777823321 | 21.67° C | 76% | 1018.2 hPa | 0 mm | - | - | - |
| 1777823184 | 20° C | 83% | 1018.2 hPa | 0 mm | - | - | - |
| 1777823021 | 21.67° C | 79% | 1018.1 hPa | 0 mm | - | - | - |
| 1777822722 | 21.11° C | 80% | 1018.3 hPa | 0 mm | - | - | - |
| 1777822422 | 21.11° C | 78% | 1018.2 hPa | 0 mm | - | - | - |
| 1777822122 | 21.11° C | 81% | 1018.1 hPa | 0 mm | - | - | - |
| 1777821880 | 20.56° C | 82% | 1018.1 hPa | 0 mm | - | - | - |
| 1777821822 | 21.11° C | 80% | 1018 hPa | 0 mm | - | - | - |
| 1777821522 | 20.56° C | 82% | 1018.1 hPa | 0 mm | - | - | - |
| 1777821222 | 20° C | 83% | 1018.2 hPa | 0 mm | - | - | - |
| 1777820922 | 20° C | 83% | 1018.4 hPa | 0 mm | - | - | - |
| 1777820622 | 19.44° C | 84% | 1018.3 hPa | 0 mm | - | - | - |
| 1777820330 | 19.44° C | 85% | 1018.2 hPa | 0 mm | - | - | - |
| 1777820322 | 19.44° C | 83% | 1018.3 hPa | 0 mm | - | - | - |
| 1777820022 | 19.44° C | 84% | 1018.5 hPa | 0 mm | - | - | - |
| 1777820022 | 19.44° C | 85% | 1018.4 hPa | 0 mm | - | - | - |
* Rain latest hour (hover to see other rain measurements)
** Current wind speed in m/s (hover to see current wind gust speed)